sensor_id;sensor_type;location;lat;lon;timestamp;P1;durP1;ratioP1;P2;durP2;ratioP2
11197;SDS011;5655;48.744;9.162;2023-07-29T00:01:14;2.50;;;2.05;;
11197;SDS011;5655;48.744;9.162;2023-07-29T00:03:39;2.08;;;1.83;;
11197;SDS011;5655;48.744;9.162;2023-07-29T00:06:05;1.98;;;1.70;;
11197;SDS011;5655;48.744;9.162;2023-07-29T00:08:30;2.33;;;1.75;;
11197;SDS011;5655;48.744;9.162;2023-07-29T00:10:55;5.28;;;1.88;;
11197;SDS011;5655;48.744;9.162;2023-07-29T00:13:20;2.03;;;1.45;;
11197;SDS011;5655;48.744;9.162;2023-07-29T00:15:46;3.45;;;1.70;;
11197;SDS011;5655;48.744;9.162;2023-07-29T00:18:11;2.65;;;2.08;;
11197;SDS011;5655;48.744;9.162;2023-07-29T00:20:37;1.90;;;1.80;;
11197;SDS011;5655;48.744;9.162;2023-07-29T00:23:02;4.65;;;1.83;;
11197;SDS011;5655;48.744;9.162;2023-07-29T00:25:27;2.78;;;2.00;;
11197;SDS011;5655;48.744;9.162;2023-07-29T00:27:55;4.07;;;2.10;;
11197;SDS011;5655;48.744;9.162;2023-07-29T00:30:21;6.22;;;2.28;;
11197;SDS011;5655;48.744;9.162;2023-07-29T00:32:46;3.17;;;2.00;;
11197;SDS011;5655;48.744;9.162;2023-07-29T00:35:12;2.25;;;1.80;;
11197;SDS011;5655;48.744;9.162;2023-07-29T00:37:38;2.35;;;2.13;;
11197;SDS011;5655;48.744;9.162;2023-07-29T00:40:05;2.22;;;1.95;;
11197;SDS011;5655;48.744;9.162;2023-07-29T00:42:39;3.35;;;2.22;;
11197;SDS011;5655;48.744;9.162;2023-07-29T00:45:04;3.78;;;2.00;;
11197;SDS011;5655;48.744;9.162;2023-07-29T00:47:32;2.50;;;1.70;;
11197;SDS011;5655;48.744;9.162;2023-07-29T00:49:58;4.95;;;2.10;;
11197;SDS011;5655;48.744;9.162;2023-07-29T00:52:23;3.40;;;2.15;;
11197;SDS011;5655;48.744;9.162;2023-07-29T00:54:48;3.00;;;2.00;;
11197;SDS011;5655;48.744;9.162;2023-07-29T00:57:14;2.38;;;1.83;;
11197;SDS011;5655;48.744;9.162;2023-07-29T00:59:41;4.00;;;1.90;;
11197;SDS011;5655;48.744;9.162;2023-07-29T01:02:07;2.40;;;1.90;;
11197;SDS011;5655;48.744;9.162;2023-07-29T01:04:33;2.55;;;1.95;;
11197;SDS011;5655;48.744;9.162;2023-07-29T01:07:03;3.42;;;2.00;;
11197;SDS011;5655;48.744;9.162;2023-07-29T01:15:16;2.50;;;1.70;;
11197;SDS011;5655;48.744;9.162;2023-07-29T01:17:45;3.63;;;2.22;;
11197;SDS011;5655;48.744;9.162;2023-07-29T01:20:16;2.30;;;2.00;;
11197;SDS011;5655;48.744;9.162;2023-07-29T01:22:42;6.35;;;1.98;;
11197;SDS011;5655;48.744;9.162;2023-07-29T01:25:08;2.40;;;1.80;;
11197;SDS011;5655;48.744;9.162;2023-07-29T01:27:34;2.70;;;1.98;;
11197;SDS011;5655;48.744;9.162;2023-07-29T01:29:59;1.85;;;1.75;;
11197;SDS011;5655;48.744;9.162;2023-07-29T01:35:15;4.18;;;1.90;;
11197;SDS011;5655;48.744;9.162;2023-07-29T01:37:48;3.55;;;2.08;;
11197;SDS011;5655;48.744;9.162;2023-07-29T01:40:29;3.13;;;2.15;;
11197;SDS011;5655;48.744;9.162;2023-07-29T01:42:55;2.10;;;1.80;;
11197;SDS011;5655;48.744;9.162;2023-07-29T01:45:24;2.67;;;1.60;;
11197;SDS011;5655;48.744;9.162;2023-07-29T01:47:52;2.08;;;1.88;;
11197;SDS011;5655;48.744;9.162;2023-07-29T01:50:18;2.42;;;1.60;;
11197;SDS011;5655;48.744;9.162;2023-07-29T01:52:43;1.85;;;1.70;;
11197;SDS011;5655;48.744;9.162;2023-07-29T01:55:08;2.88;;;1.83;;
11197;SDS011;5655;48.744;9.162;2023-07-29T01:57:34;2.20;;;2.00;;
11197;SDS011;5655;48.744;9.162;2023-07-29T01:59:59;1.80;;;1.65;;
11197;SDS011;5655;48.744;9.162;2023-07-29T02:02:25;2.15;;;1.85;;
11197;SDS011;5655;48.744;9.162;2023-07-29T02:04:50;2.72;;;2.00;;
11197;SDS011;5655;48.744;9.162;2023-07-29T02:07:17;1.95;;;1.70;;
11197;SDS011;5655;48.744;9.162;2023-07-29T02:09:45;2.00;;;1.73;;
11197;SDS011;5655;48.744;9.162;2023-07-29T02:12:10;2.80;;;1.85;;
11197;SDS011;5655;48.744;9.162;2023-07-29T02:14:36;2.17;;;1.90;;
11197;SDS011;5655;48.744;9.162;2023-07-29T02:17:01;2.38;;;1.98;;
11197;SDS011;5655;48.744;9.162;2023-07-29T02:19:26;2.28;;;2.08;;
11197;SDS011;5655;48.744;9.162;2023-07-29T02:21:52;2.60;;;1.77;;
11197;SDS011;5655;48.744;9.162;2023-07-29T02:24:17;1.67;;;1.52;;
11197;SDS011;5655;48.744;9.162;2023-07-29T02:26:42;2.30;;;1.83;;
11197;SDS011;5655;48.744;9.162;2023-07-29T02:29:07;2.08;;;1.60;;
11197;SDS011;5655;48.744;9.162;2023-07-29T02:31:33;2.10;;;1.73;;
11197;SDS011;5655;48.744;9.162;2023-07-29T02:33:59;1.65;;;1.55;;
11197;SDS011;5655;48.744;9.162;2023-07-29T02:36:25;1.95;;;1.75;;
11197;SDS011;5655;48.744;9.162;2023-07-29T02:38:50;4.40;;;1.60;;
11197;SDS011;5655;48.744;9.162;2023-07-29T02:41:15;2.38;;;1.73;;
11197;SDS011;5655;48.744;9.162;2023-07-29T02:43:42;2.42;;;1.90;;
11197;SDS011;5655;48.744;9.162;2023-07-29T02:46:07;1.80;;;1.60;;
11197;SDS011;5655;48.744;9.162;2023-07-29T02:48:33;2.22;;;1.50;;
11197;SDS011;5655;48.744;9.162;2023-07-29T02:50:58;2.75;;;1.63;;
11197;SDS011;5655;48.744;9.162;2023-07-29T02:53:24;1.90;;;1.73;;
11197;SDS011;5655;48.744;9.162;2023-07-29T02:55:50;2.80;;;1.73;;
11197;SDS011;5655;48.744;9.162;2023-07-29T02:58:15;2.47;;;1.80;;
11197;SDS011;5655;48.744;9.162;2023-07-29T03:00:41;1.77;;;1.63;;
11197;SDS011;5655;48.744;9.162;2023-07-29T03:03:09;2.28;;;1.63;;
11197;SDS011;5655;48.744;9.162;2023-07-29T03:05:34;2.10;;;1.50;;
11197;SDS011;5655;48.744;9.162;2023-07-29T03:08:00;2.15;;;1.60;;
11197;SDS011;5655;48.744;9.162;2023-07-29T03:10:25;2.97;;;1.63;;
11197;SDS011;5655;48.744;9.162;2023-07-29T03:12:53;3.40;;;1.50;;
11197;SDS011;5655;48.744;9.162;2023-07-29T03:15:18;2.80;;;1.42;;
11197;SDS011;5655;48.744;9.162;2023-07-29T03:17:45;2.03;;;1.67;;
11197;SDS011;5655;48.744;9.162;2023-07-29T03:20:11;3.10;;;1.75;;
11197;SDS011;5655;48.744;9.162;2023-07-29T03:22:37;2.40;;;1.85;;
11197;SDS011;5655;48.744;9.162;2023-07-29T03:25:02;4.10;;;1.98;;
11197;SDS011;5655;48.744;9.162;2023-07-29T03:27:28;2.33;;;1.80;;
11197;SDS011;5655;48.744;9.162;2023-07-29T03:29:53;2.85;;;1.60;;
11197;SDS011;5655;48.744;9.162;2023-07-29T03:32:18;2.50;;;1.63;;
11197;SDS011;5655;48.744;9.162;2023-07-29T03:34:44;3.60;;;1.70;;
11197;SDS011;5655;48.744;9.162;2023-07-29T03:37:09;3.13;;;1.80;;
11197;SDS011;5655;48.744;9.162;2023-07-29T03:39:34;3.05;;;2.00;;
11197;SDS011;5655;48.744;9.162;2023-07-29T03:41:59;1.60;;;1.35;;
11197;SDS011;5655;48.744;9.162;2023-07-29T03:44:25;2.10;;;1.77;;
11197;SDS011;5655;48.744;9.162;2023-07-29T03:46:50;3.00;;;1.80;;
11197;SDS011;5655;48.744;9.162;2023-07-29T03:49:16;2.00;;;1.70;;
11197;SDS011;5655;48.744;9.162;2023-07-29T03:51:41;3.45;;;1.83;;
11197;SDS011;5655;48.744;9.162;2023-07-29T03:54:06;3.90;;;2.05;;
11197;SDS011;5655;48.744;9.162;2023-07-29T03:56:32;2.63;;;1.70;;
11197;SDS011;5655;48.744;9.162;2023-07-29T03:59:06;3.13;;;1.55;;
11197;SDS011;5655;48.744;9.162;2023-07-29T04:01:32;1.80;;;1.55;;
11197;SDS011;5655;48.744;9.162;2023-07-29T04:03:57;2.97;;;1.90;;
11197;SDS011;5655;48.744;9.162;2023-07-29T04:06:23;5.00;;;2.00;;
11197;SDS011;5655;48.744;9.162;2023-07-29T04:08:49;3.28;;;1.98;;
11197;SDS011;5655;48.744;9.162;2023-07-29T04:11:14;3.92;;;2.05;;
11197;SDS011;5655;48.744;9.162;2023-07-29T04:13:39;3.72;;;2.25;;
11197;SDS011;5655;48.744;9.162;2023-07-29T04:16:05;3.88;;;2.55;;
11197;SDS011;5655;48.744;9.162;2023-07-29T04:18:30;6.28;;;2.50;;
11197;SDS011;5655;48.744;9.162;2023-07-29T04:20:56;2.97;;;2.13;;
11197;SDS011;5655;48.744;9.162;2023-07-29T04:23:21;4.72;;;1.98;;
11197;SDS011;5655;48.744;9.162;2023-07-29T04:25:46;3.45;;;2.13;;
11197;SDS011;5655;48.744;9.162;2023-07-29T04:28:12;3.50;;;2.65;;
11197;SDS011;5655;48.744;9.162;2023-07-29T04:30:37;5.18;;;2.50;;
11197;SDS011;5655;48.744;9.162;2023-07-29T04:33:02;2.70;;;2.50;;
11197;SDS011;5655;48.744;9.162;2023-07-29T04:35:28;3.88;;;2.72;;
11197;SDS011;5655;48.744;9.162;2023-07-29T04:37:53;3.60;;;2.20;;
11197;SDS011;5655;48.744;9.162;2023-07-29T04:40:18;4.13;;;2.95;;
11197;SDS011;5655;48.744;9.162;2023-07-29T04:42:44;6.22;;;3.00;;
11197;SDS011;5655;48.744;9.162;2023-07-29T04:45:09;4.97;;;2.30;;
11197;SDS011;5655;48.744;9.162;2023-07-29T04:47:34;6.80;;;2.75;;
11197;SDS011;5655;48.744;9.162;2023-07-29T04:50:00;2.97;;;2.28;;
11197;SDS011;5655;48.744;9.162;2023-07-29T04:52:25;6.22;;;2.95;;
11197;SDS011;5655;48.744;9.162;2023-07-29T04:54:50;5.57;;;2.40;;
11197;SDS011;5655;48.744;9.162;2023-07-29T04:57:16;3.90;;;2.50;;
11197;SDS011;5655;48.744;9.162;2023-07-29T04:59:41;4.55;;;2.50;;
11197;SDS011;5655;48.744;9.162;2023-07-29T05:02:06;5.75;;;3.00;;
11197;SDS011;5655;48.744;9.162;2023-07-29T05:04:32;3.42;;;2.80;;
11197;SDS011;5655;48.744;9.162;2023-07-29T05:06:57;4.38;;;2.63;;
11197;SDS011;5655;48.744;9.162;2023-07-29T05:09:23;5.03;;;3.08;;
11197;SDS011;5655;48.744;9.162;2023-07-29T05:11:48;8.48;;;3.58;;
11197;SDS011;5655;48.744;9.162;2023-07-29T05:14:14;6.00;;;3.88;;
11197;SDS011;5655;48.744;9.162;2023-07-29T05:16:40;9.38;;;3.67;;
11197;SDS011;5655;48.744;9.162;2023-07-29T05:19:06;4.32;;;3.75;;
11197;SDS011;5655;48.744;9.162;2023-07-29T05:21:31;6.85;;;3.05;;
11197;SDS011;5655;48.744;9.162;2023-07-29T05:23:57;6.55;;;3.40;;
11197;SDS011;5655;48.744;9.162;2023-07-29T05:26:22;4.15;;;3.22;;
11197;SDS011;5655;48.744;9.162;2023-07-29T05:28:48;5.40;;;3.28;;
11197;SDS011;5655;48.744;9.162;2023-07-29T05:31:13;7.45;;;3.47;;
11197;SDS011;5655;48.744;9.162;2023-07-29T05:33:38;5.55;;;3.70;;
11197;SDS011;5655;48.744;9.162;2023-07-29T05:36:04;7.90;;;3.60;;
11197;SDS011;5655;48.744;9.162;2023-07-29T05:38:30;3.63;;;3.15;;
11197;SDS011;5655;48.744;9.162;2023-07-29T05:40:55;5.22;;;3.60;;
11197;SDS011;5655;48.744;9.162;2023-07-29T05:43:20;6.57;;;4.28;;
11197;SDS011;5655;48.744;9.162;2023-07-29T05:45:46;4.60;;;3.85;;
11197;SDS011;5655;48.744;9.162;2023-07-29T05:48:11;7.25;;;4.10;;
11197;SDS011;5655;48.744;9.162;2023-07-29T05:50:36;6.40;;;3.95;;
11197;SDS011;5655;48.744;9.162;2023-07-29T05:53:01;6.05;;;4.25;;
11197;SDS011;5655;48.744;9.162;2023-07-29T05:55:27;6.15;;;4.60;;
11197;SDS011;5655;48.744;9.162;2023-07-29T05:57:52;7.20;;;4.57;;
11197;SDS011;5655;48.744;9.162;2023-07-29T06:00:17;4.65;;;4.22;;
11197;SDS011;5655;48.744;9.162;2023-07-29T06:02:43;5.93;;;4.50;;
11197;SDS011;5655;48.744;9.162;2023-07-29T06:05:08;4.80;;;3.92;;
11197;SDS011;5655;48.744;9.162;2023-07-29T06:07:33;7.40;;;4.32;;
11197;SDS011;5655;48.744;9.162;2023-07-29T06:09:59;5.32;;;3.63;;
11197;SDS011;5655;48.744;9.162;2023-07-29T06:12:25;4.75;;;3.60;;
11197;SDS011;5655;48.744;9.162;2023-07-29T06:14:50;8.63;;;3.65;;
11197;SDS011;5655;48.744;9.162;2023-07-29T06:17:15;4.63;;;3.50;;
11197;SDS011;5655;48.744;9.162;2023-07-29T06:19:41;4.43;;;3.75;;
11197;SDS011;5655;48.744;9.162;2023-07-29T06:22:06;4.95;;;3.45;;
11197;SDS011;5655;48.744;9.162;2023-07-29T06:24:31;8.70;;;3.40;;
11197;SDS011;5655;48.744;9.162;2023-07-29T06:26:57;3.38;;;2.72;;
11197;SDS011;5655;48.744;9.162;2023-07-29T06:29:23;5.40;;;3.75;;
11197;SDS011;5655;48.744;9.162;2023-07-29T06:31:48;5.75;;;4.00;;
11197;SDS011;5655;48.744;9.162;2023-07-29T06:34:13;7.78;;;4.93;;
11197;SDS011;5655;48.744;9.162;2023-07-29T06:36:39;10.05;;;6.40;;
11197;SDS011;5655;48.744;9.162;2023-07-29T06:39:04;7.18;;;5.80;;
11197;SDS011;5655;48.744;9.162;2023-07-29T06:41:29;10.80;;;5.95;;
11197;SDS011;5655;48.744;9.162;2023-07-29T06:43:55;7.88;;;5.43;;
11197;SDS011;5655;48.744;9.162;2023-07-29T06:46:21;7.40;;;5.40;;
11197;SDS011;5655;48.744;9.162;2023-07-29T06:48:46;8.32;;;4.97;;
11197;SDS011;5655;48.744;9.162;2023-07-29T06:51:11;8.77;;;3.72;;
11197;SDS011;5655;48.744;9.162;2023-07-29T06:53:37;5.13;;;3.55;;
11197;SDS011;5655;48.744;9.162;2023-07-29T06:56:02;3.60;;;3.25;;
11197;SDS011;5655;48.744;9.162;2023-07-29T06:58:28;6.47;;;3.80;;
11197;SDS011;5655;48.744;9.162;2023-07-29T07:00:53;5.75;;;3.92;;
11197;SDS011;5655;48.744;9.162;2023-07-29T07:03:18;6.18;;;3.58;;
11197;SDS011;5655;48.744;9.162;2023-07-29T07:05:43;3.85;;;2.80;;
11197;SDS011;5655;48.744;9.162;2023-07-29T07:08:09;5.85;;;3.70;;
11197;SDS011;5655;48.744;9.162;2023-07-29T07:10:34;4.53;;;3.38;;
11197;SDS011;5655;48.744;9.162;2023-07-29T07:12:59;4.13;;;3.67;;
11197;SDS011;5655;48.744;9.162;2023-07-29T07:15:25;12.07;;;3.83;;
11197;SDS011;5655;48.744;9.162;2023-07-29T07:17:50;5.95;;;3.75;;
11197;SDS011;5655;48.744;9.162;2023-07-29T07:20:16;4.22;;;2.92;;
11197;SDS011;5655;48.744;9.162;2023-07-29T07:22:41;4.35;;;2.90;;
11197;SDS011;5655;48.744;9.162;2023-07-29T07:25:07;3.92;;;3.17;;
11197;SDS011;5655;48.744;9.162;2023-07-29T07:27:33;3.92;;;3.03;;
11197;SDS011;5655;48.744;9.162;2023-07-29T07:29:58;6.03;;;4.30;;
11197;SDS011;5655;48.744;9.162;2023-07-29T07:32:23;5.97;;;5.22;;
11197;SDS011;5655;48.744;9.162;2023-07-29T07:34:49;10.75;;;5.43;;
11197;SDS011;5655;48.744;9.162;2023-07-29T07:37:14;5.45;;;4.18;;
11197;SDS011;5655;48.744;9.162;2023-07-29T07:39:39;7.88;;;4.85;;
11197;SDS011;5655;48.744;9.162;2023-07-29T07:42:05;6.55;;;4.78;;
11197;SDS011;5655;48.744;9.162;2023-07-29T07:44:30;10.40;;;5.20;;
11197;SDS011;5655;48.744;9.162;2023-07-29T07:46:55;6.38;;;4.70;;
11197;SDS011;5655;48.744;9.162;2023-07-29T07:49:21;6.22;;;3.88;;
11197;SDS011;5655;48.744;9.162;2023-07-29T07:51:47;7.35;;;4.70;;
11197;SDS011;5655;48.744;9.162;2023-07-29T07:54:12;5.03;;;3.97;;
11197;SDS011;5655;48.744;9.162;2023-07-29T07:56:38;4.95;;;3.08;;
11197;SDS011;5655;48.744;9.162;2023-07-29T07:59:03;4.20;;;3.50;;
11197;SDS011;5655;48.744;9.162;2023-07-29T08:01:33;7.55;;;3.65;;
11197;SDS011;5655;48.744;9.162;2023-07-29T08:04:00;4.22;;;3.47;;
11197;SDS011;5655;48.744;9.162;2023-07-29T08:06:25;3.50;;;3.13;;
11197;SDS011;5655;48.744;9.162;2023-07-29T08:08:51;5.18;;;3.38;;
11197;SDS011;5655;48.744;9.162;2023-07-29T08:11:16;3.63;;;3.00;;
11197;SDS011;5655;48.744;9.162;2023-07-29T08:13:41;3.85;;;3.05;;
11197;SDS011;5655;48.744;9.162;2023-07-29T08:16:06;3.97;;;2.60;;
11197;SDS011;5655;48.744;9.162;2023-07-29T08:18:32;6.03;;;3.03;;
11197;SDS011;5655;48.744;9.162;2023-07-29T08:20:58;3.78;;;3.30;;
11197;SDS011;5655;48.744;9.162;2023-07-29T08:23:29;7.75;;;3.65;;
11197;SDS011;5655;48.744;9.162;2023-07-29T08:25:57;3.92;;;3.13;;
11197;SDS011;5655;48.744;9.162;2023-07-29T08:28:27;4.32;;;2.63;;
11197;SDS011;5655;48.744;9.162;2023-07-29T08:30:53;3.65;;;2.95;;
11197;SDS011;5655;48.744;9.162;2023-07-29T08:33:19;5.82;;;3.47;;
11197;SDS011;5655;48.744;9.162;2023-07-29T08:35:44;2.30;;;2.10;;
11197;SDS011;5655;48.744;9.162;2023-07-29T08:38:09;3.00;;;2.28;;
11197;SDS011;5655;48.744;9.162;2023-07-29T08:40:35;2.22;;;2.03;;
11197;SDS011;5655;48.744;9.162;2023-07-29T08:43:06;2.55;;;2.15;;
11197;SDS011;5655;48.744;9.162;2023-07-29T08:45:35;2.47;;;1.90;;
11197;SDS011;5655;48.744;9.162;2023-07-29T08:48:06;2.03;;;1.73;;
11197;SDS011;5655;48.744;9.162;2023-07-29T08:50:33;2.28;;;1.77;;
11197;SDS011;5655;48.744;9.162;2023-07-29T08:53:01;4.88;;;2.20;;
11197;SDS011;5655;48.744;9.162;2023-07-29T08:55:29;2.13;;;1.70;;
11197;SDS011;5655;48.744;9.162;2023-07-29T08:57:55;2.28;;;1.67;;
11197;SDS011;5655;48.744;9.162;2023-07-29T09:00:22;2.30;;;1.85;;
11197;SDS011;5655;48.744;9.162;2023-07-29T09:02:47;3.13;;;2.03;;
11197;SDS011;5655;48.744;9.162;2023-07-29T09:05:13;2.55;;;2.05;;
11197;SDS011;5655;48.744;9.162;2023-07-29T09:07:38;2.65;;;1.60;;
11197;SDS011;5655;48.744;9.162;2023-07-29T09:10:08;2.40;;;1.77;;
11197;SDS011;5655;48.744;9.162;2023-07-29T09:12:35;2.45;;;2.00;;
11197;SDS011;5655;48.744;9.162;2023-07-29T09:15:00;2.22;;;1.90;;
11197;SDS011;5655;48.744;9.162;2023-07-29T09:17:26;2.72;;;2.08;;
11197;SDS011;5655;48.744;9.162;2023-07-29T09:19:51;2.80;;;2.08;;
11197;SDS011;5655;48.744;9.162;2023-07-29T09:22:17;5.75;;;1.88;;
11197;SDS011;5655;48.744;9.162;2023-07-29T09:24:45;3.63;;;2.10;;
11197;SDS011;5655;48.744;9.162;2023-07-29T09:27:15;3.10;;;1.85;;
11197;SDS011;5655;48.744;9.162;2023-07-29T09:29:49;2.13;;;1.80;;
11197;SDS011;5655;48.744;9.162;2023-07-29T09:32:18;2.00;;;1.80;;
11197;SDS011;5655;48.744;9.162;2023-07-29T09:34:45;2.70;;;1.52;;
11197;SDS011;5655;48.744;9.162;2023-07-29T09:37:15;3.80;;;1.70;;
11197;SDS011;5655;48.744;9.162;2023-07-29T09:39:43;1.98;;;1.73;;
11197;SDS011;5655;48.744;9.162;2023-07-29T09:42:11;1.83;;;1.60;;
11197;SDS011;5655;48.744;9.162;2023-07-29T09:44:42;2.45;;;2.05;;
11197;SDS011;5655;48.744;9.162;2023-07-29T09:47:07;3.30;;;2.13;;
11197;SDS011;5655;48.744;9.162;2023-07-29T09:49:34;2.72;;;2.30;;
11197;SDS011;5655;48.744;9.162;2023-07-29T09:52:01;2.42;;;2.22;;
11197;SDS011;5655;48.744;9.162;2023-07-29T09:54:29;2.83;;;2.03;;
11197;SDS011;5655;48.744;9.162;2023-07-29T09:56:55;3.58;;;1.80;;
11197;SDS011;5655;48.744;9.162;2023-07-29T09:59:22;2.08;;;1.52;;
11197;SDS011;5655;48.744;9.162;2023-07-29T10:01:49;2.53;;;1.80;;
11197;SDS011;5655;48.744;9.162;2023-07-29T10:04:15;2.47;;;1.63;;
11197;SDS011;5655;48.744;9.162;2023-07-29T10:06:42;1.85;;;1.67;;
11197;SDS011;5655;48.744;9.162;2023-07-29T10:09:08;2.03;;;1.58;;
11197;SDS011;5655;48.744;9.162;2023-07-29T10:11:36;3.20;;;1.95;;
11197;SDS011;5655;48.744;9.162;2023-07-29T10:14:02;2.88;;;1.50;;
11197;SDS011;5655;48.744;9.162;2023-07-29T10:16:28;1.58;;;1.30;;
11197;SDS011;5655;48.744;9.162;2023-07-29T10:18:54;2.08;;;1.52;;
11197;SDS011;5655;48.744;9.162;2023-07-29T10:21:21;2.03;;;1.52;;
11197;SDS011;5655;48.744;9.162;2023-07-29T10:23:47;1.48;;;1.38;;
11197;SDS011;5655;48.744;9.162;2023-07-29T10:26:18;1.90;;;1.42;;
11197;SDS011;5655;48.744;9.162;2023-07-29T10:28:46;1.73;;;1.58;;
11197;SDS011;5655;48.744;9.162;2023-07-29T10:31:13;2.42;;;1.55;;
11197;SDS011;5655;48.744;9.162;2023-07-29T10:33:40;3.80;;;1.60;;
11197;SDS011;5655;48.744;9.162;2023-07-29T10:36:06;1.60;;;1.48;;
11197;SDS011;5655;48.744;9.162;2023-07-29T10:38:33;2.30;;;1.65;;
11197;SDS011;5655;48.744;9.162;2023-07-29T10:40:58;2.45;;;1.88;;
11197;SDS011;5655;48.744;9.162;2023-07-29T10:45:55;4.05;;;1.70;;
11197;SDS011;5655;48.744;9.162;2023-07-29T10:54:18;1.70;;;1.45;;
11197;SDS011;5655;48.744;9.162;2023-07-29T10:56:46;2.15;;;1.55;;
11197;SDS011;5655;48.744;9.162;2023-07-29T11:01:40;1.63;;;1.52;;
11197;SDS011;5655;48.744;9.162;2023-07-29T11:09:41;1.70;;;1.50;;
11197;SDS011;5655;48.744;9.162;2023-07-29T11:17:39;3.40;;;1.40;;
11197;SDS011;5655;48.744;9.162;2023-07-29T11:20:06;1.73;;;1.48;;
11197;SDS011;5655;48.744;9.162;2023-07-29T11:22:33;1.50;;;1.40;;
11197;SDS011;5655;48.744;9.162;2023-07-29T11:24:58;1.80;;;1.52;;
11197;SDS011;5655;48.744;9.162;2023-07-29T11:27:24;1.63;;;1.40;;
11197;SDS011;5655;48.744;9.162;2023-07-29T11:29:49;2.17;;;1.20;;
11197;SDS011;5655;48.744;9.162;2023-07-29T11:32:15;2.45;;;1.33;;
11197;SDS011;5655;48.744;9.162;2023-07-29T11:34:41;1.45;;;1.35;;
11197;SDS011;5655;48.744;9.162;2023-07-29T11:37:08;1.40;;;1.30;;
11197;SDS011;5655;48.744;9.162;2023-07-29T11:39:39;1.58;;;1.40;;
11197;SDS011;5655;48.744;9.162;2023-07-29T11:42:12;2.28;;;1.30;;
11197;SDS011;5655;48.744;9.162;2023-07-29T11:44:38;1.52;;;1.42;;
11197;SDS011;5655;48.744;9.162;2023-07-29T11:47:12;1.70;;;1.40;;
11197;SDS011;5655;48.744;9.162;2023-07-29T11:49:38;1.80;;;1.40;;
11197;SDS011;5655;48.744;9.162;2023-07-29T11:52:08;1.67;;;1.35;;
11197;SDS011;5655;48.744;9.162;2023-07-29T11:54:37;1.60;;;1.50;;
11197;SDS011;5655;48.744;9.162;2023-07-29T11:57:12;1.48;;;1.38;;
11197;SDS011;5655;48.744;9.162;2023-07-29T11:59:39;1.92;;;1.40;;
11197;SDS011;5655;48.744;9.162;2023-07-29T12:02:05;2.72;;;1.60;;
11197;SDS011;5655;48.744;9.162;2023-07-29T12:04:38;1.50;;;1.40;;
11197;SDS011;5655;48.744;9.162;2023-07-29T12:07:04;1.45;;;1.30;;
11197;SDS011;5655;48.744;9.162;2023-07-29T12:09:31;2.38;;;1.58;;
11197;SDS011;5655;48.744;9.162;2023-07-29T12:11:56;3.83;;;1.65;;
11197;SDS011;5655;48.744;9.162;2023-07-29T12:14:25;1.67;;;1.58;;
11197;SDS011;5655;48.744;9.162;2023-07-29T12:16:51;1.48;;;1.35;;
11197;SDS011;5655;48.744;9.162;2023-07-29T12:19:17;1.95;;;1.50;;
11197;SDS011;5655;48.744;9.162;2023-07-29T12:21:43;1.75;;;1.63;;
11197;SDS011;5655;48.744;9.162;2023-07-29T12:24:09;1.73;;;1.40;;
11197;SDS011;5655;48.744;9.162;2023-07-29T12:26:37;2.42;;;1.58;;
11197;SDS011;5655;48.744;9.162;2023-07-29T12:29:12;2.90;;;1.65;;
11197;SDS011;5655;48.744;9.162;2023-07-29T12:31:45;3.15;;;1.70;;
11197;SDS011;5655;48.744;9.162;2023-07-29T12:34:16;1.50;;;1.40;;
11197;SDS011;5655;48.744;9.162;2023-07-29T12:36:46;2.50;;;1.67;;
11197;SDS011;5655;48.744;9.162;2023-07-29T12:39:19;2.28;;;1.40;;
11197;SDS011;5655;48.744;9.162;2023-07-29T12:41:47;2.15;;;1.40;;
11197;SDS011;5655;48.744;9.162;2023-07-29T12:44:13;1.50;;;1.40;;
11197;SDS011;5655;48.744;9.162;2023-07-29T12:46:38;1.77;;;1.42;;
11197;SDS011;5655;48.744;9.162;2023-07-29T12:49:03;3.92;;;1.75;;
11197;SDS011;5655;48.744;9.162;2023-07-29T12:51:29;1.40;;;1.30;;
11197;SDS011;5655;48.744;9.162;2023-07-29T12:53:55;1.40;;;1.30;;
11197;SDS011;5655;48.744;9.162;2023-07-29T12:56:20;4.05;;;1.60;;
11197;SDS011;5655;48.744;9.162;2023-07-29T12:58:45;1.40;;;1.17;;
11197;SDS011;5655;48.744;9.162;2023-07-29T13:01:10;1.75;;;1.35;;
11197;SDS011;5655;48.744;9.162;2023-07-29T13:03:41;2.33;;;1.70;;
11197;SDS011;5655;48.744;9.162;2023-07-29T13:06:07;1.48;;;1.38;;
11197;SDS011;5655;48.744;9.162;2023-07-29T13:08:32;1.45;;;1.30;;
11197;SDS011;5655;48.744;9.162;2023-07-29T13:10:57;1.30;;;1.20;;
11197;SDS011;5655;48.744;9.162;2023-07-29T13:13:23;1.50;;;1.40;;
11197;SDS011;5655;48.744;9.162;2023-07-29T13:15:48;2.33;;;1.40;;
11197;SDS011;5655;48.744;9.162;2023-07-29T13:18:13;1.80;;;1.50;;
11197;SDS011;5655;48.744;9.162;2023-07-29T13:20:38;1.65;;;1.50;;
11197;SDS011;5655;48.744;9.162;2023-07-29T13:23:04;2.47;;;1.60;;
11197;SDS011;5655;48.744;9.162;2023-07-29T13:25:29;1.50;;;1.38;;
11197;SDS011;5655;48.744;9.162;2023-07-29T13:27:54;1.40;;;1.30;;
11197;SDS011;5655;48.744;9.162;2023-07-29T13:30:20;2.05;;;1.52;;
11197;SDS011;5655;48.744;9.162;2023-07-29T13:32:45;1.77;;;1.50;;
11197;SDS011;5655;48.744;9.162;2023-07-29T13:35:10;1.92;;;1.63;;
11197;SDS011;5655;48.744;9.162;2023-07-29T13:37:36;1.65;;;1.55;;
11197;SDS011;5655;48.744;9.162;2023-07-29T13:40:01;1.58;;;1.42;;
11197;SDS011;5655;48.744;9.162;2023-07-29T13:42:26;1.73;;;1.55;;
11197;SDS011;5655;48.744;9.162;2023-07-29T13:44:51;1.70;;;1.40;;
11197;SDS011;5655;48.744;9.162;2023-07-29T13:47:17;2.75;;;1.65;;
11197;SDS011;5655;48.744;9.162;2023-07-29T13:49:42;1.85;;;1.75;;
11197;SDS011;5655;48.744;9.162;2023-07-29T13:52:07;1.77;;;1.38;;
11197;SDS011;5655;48.744;9.162;2023-07-29T13:54:33;1.50;;;1.35;;
11197;SDS011;5655;48.744;9.162;2023-07-29T13:56:58;2.95;;;1.45;;
11197;SDS011;5655;48.744;9.162;2023-07-29T13:59:23;1.88;;;1.52;;
11197;SDS011;5655;48.744;9.162;2023-07-29T14:01:48;1.80;;;1.48;;
11197;SDS011;5655;48.744;9.162;2023-07-29T14:04:14;2.08;;;1.55;;
11197;SDS011;5655;48.744;9.162;2023-07-29T14:06:39;1.65;;;1.55;;
11197;SDS011;5655;48.744;9.162;2023-07-29T14:09:04;2.40;;;1.45;;
11197;SDS011;5655;48.744;9.162;2023-07-29T14:11:30;1.70;;;1.50;;
11197;SDS011;5655;48.744;9.162;2023-07-29T14:13:55;2.47;;;1.60;;
11197;SDS011;5655;48.744;9.162;2023-07-29T14:16:20;1.33;;;1.23;;
11197;SDS011;5655;48.744;9.162;2023-07-29T14:18:46;1.52;;;1.35;;
11197;SDS011;5655;48.744;9.162;2023-07-29T14:21:11;2.70;;;1.23;;
11197;SDS011;5655;48.744;9.162;2023-07-29T14:23:36;3.35;;;1.70;;
11197;SDS011;5655;48.744;9.162;2023-07-29T14:26:01;2.00;;;1.70;;
11197;SDS011;5655;48.744;9.162;2023-07-29T14:28:27;2.55;;;1.52;;
11197;SDS011;5655;48.744;9.162;2023-07-29T14:30:52;1.90;;;1.60;;
11197;SDS011;5655;48.744;9.162;2023-07-29T14:33:17;1.65;;;1.55;;
11197;SDS011;5655;48.744;9.162;2023-07-29T14:35:43;1.45;;;1.35;;
11197;SDS011;5655;48.744;9.162;2023-07-29T14:38:08;1.63;;;1.52;;
11197;SDS011;5655;48.744;9.162;2023-07-29T14:40:33;1.80;;;1.58;;
11197;SDS011;5655;48.744;9.162;2023-07-29T14:42:59;2.00;;;1.70;;
11197;SDS011;5655;48.744;9.162;2023-07-29T14:45:24;2.97;;;1.70;;
11197;SDS011;5655;48.744;9.162;2023-07-29T14:47:49;2.25;;;1.95;;
11197;SDS011;5655;48.744;9.162;2023-07-29T14:50:15;2.75;;;1.90;;
11197;SDS011;5655;48.744;9.162;2023-07-29T14:52:40;2.25;;;1.90;;
11197;SDS011;5655;48.744;9.162;2023-07-29T14:55:05;2.03;;;1.70;;
11197;SDS011;5655;48.744;9.162;2023-07-29T14:57:31;1.63;;;1.40;;
11197;SDS011;5655;48.744;9.162;2023-07-29T14:59:56;1.63;;;1.52;;
11197;SDS011;5655;48.744;9.162;2023-07-29T15:02:21;2.03;;;1.83;;
11197;SDS011;5655;48.744;9.162;2023-07-29T15:04:48;2.08;;;1.50;;
11197;SDS011;5655;48.744;9.162;2023-07-29T15:07:13;2.38;;;1.90;;
11197;SDS011;5655;48.744;9.162;2023-07-29T15:09:39;1.63;;;1.52;;
11197;SDS011;5655;48.744;9.162;2023-07-29T15:12:04;2.65;;;1.90;;
11197;SDS011;5655;48.744;9.162;2023-07-29T15:14:30;1.92;;;1.67;;
11197;SDS011;5655;48.744;9.162;2023-07-29T15:16:55;1.95;;;1.42;;
11197;SDS011;5655;48.744;9.162;2023-07-29T15:19:21;2.65;;;1.60;;
11197;SDS011;5655;48.744;9.162;2023-07-29T15:21:46;2.30;;;1.98;;
11197;SDS011;5655;48.744;9.162;2023-07-29T15:24:11;2.45;;;1.38;;